createdAt,value
2019-02-14T00:00:48.530Z,15.63
2019-02-14T00:03:09.711Z,17.60
2019-02-14T00:05:30.935Z,15.90
2019-02-14T00:07:52.122Z,15.80
2019-02-14T00:10:13.330Z,15.17
2019-02-14T00:12:34.537Z,14.43
2019-02-14T00:14:55.834Z,16.37
2019-02-14T00:17:17.028Z,18.37
2019-02-14T00:19:38.228Z,14.90
2019-02-14T00:21:59.455Z,13.73
2019-02-14T00:24:20.655Z,15.13
2019-02-14T00:26:41.866Z,16.03
2019-02-14T00:29:03.164Z,16.30
2019-02-14T00:31:24.383Z,15.77
2019-02-14T00:33:45.663Z,17.50
2019-02-14T00:36:06.874Z,16.17
2019-02-14T00:38:28.050Z,15.67
2019-02-14T00:40:49.662Z,14.83
2019-02-14T00:43:10.869Z,14.50
2019-02-14T00:45:32.084Z,14.27
2019-02-14T00:47:53.409Z,13.10
2019-02-14T00:50:14.617Z,14.40
2019-02-14T00:52:35.825Z,15.57
2019-02-14T00:54:57.022Z,14.13
2019-02-14T00:57:18.314Z,12.80
2019-02-14T00:59:39.514Z,12.57
2019-02-14T01:02:00.732Z,12.73
2019-02-14T01:04:21.949Z,14.00
2019-02-14T01:06:43.158Z,14.43
2019-02-14T01:09:05.248Z,13.63
2019-02-14T01:11:27.065Z,13.60
2019-02-14T01:13:48.252Z,13.27
2019-02-14T01:16:09.529Z,13.70
2019-02-14T01:18:30.749Z,13.93
2019-02-14T01:20:51.928Z,14.10
2019-02-14T01:23:13.236Z,13.47
2019-02-14T01:25:34.425Z,13.93
2019-02-14T01:27:55.948Z,13.60
2019-02-14T01:30:17.137Z,14.53
2019-02-14T01:32:38.339Z,12.90
2019-02-14T01:34:59.552Z,13.70
2019-02-14T01:37:20.781Z,11.90
2019-02-14T01:39:41.973Z,12.80
2019-02-14T01:42:03.179Z,11.47
2019-02-14T01:44:24.368Z,12.70
2019-02-14T01:46:45.860Z,15.60
2019-02-14T01:49:07.082Z,13.43
2019-02-14T01:51:28.275Z,14.43
2019-02-14T01:53:49.487Z,13.60
2019-02-14T01:56:10.676Z,11.57
2019-02-14T01:58:31.884Z,13.27
2019-02-14T02:00:53.194Z,12.73
2019-02-14T02:03:14.507Z,11.50
2019-02-14T02:05:35.705Z,12.20
2019-02-14T02:07:56.996Z,11.93
2019-02-14T02:10:18.279Z,13.13
2019-02-14T02:12:39.561Z,12.27
2019-02-14T02:15:01.266Z,12.40
2019-02-14T02:17:22.432Z,12.90
2019-02-14T02:19:43.619Z,11.73
2019-02-14T02:22:04.815Z,13.30
2019-02-14T02:24:26.014Z,14.70
2019-02-14T02:26:47.185Z,12.00
2019-02-14T02:29:08.370Z,12.30
2019-02-14T02:31:29.824Z,10.47
2019-02-14T02:33:51.012Z,9.87
2019-02-14T02:36:12.218Z,11.50
2019-02-14T02:38:33.403Z,13.30
2019-02-14T02:40:54.580Z,10.93
2019-02-14T02:43:16.969Z,10.60
2019-02-14T02:45:38.133Z,12.40
2019-02-14T02:47:59.333Z,11.70
2019-02-14T02:50:20.643Z,14.23
2019-02-14T02:52:41.828Z,11.83
2019-02-14T02:55:05.511Z,10.43
2019-02-14T02:57:26.680Z,9.83
2019-02-14T02:59:48.057Z,10.00
2019-02-14T03:02:09.239Z,13.07
2019-02-14T03:04:30.418Z,9.73
2019-02-14T03:06:51.612Z,10.27
2019-02-14T03:09:12.812Z,11.43
2019-02-14T03:11:33.983Z,9.50
2019-02-14T03:13:55.169Z,12.83
2019-02-14T03:16:16.626Z,11.73
2019-02-14T03:18:37.823Z,10.50
2019-02-14T03:20:58.996Z,10.90
2019-02-14T03:23:21.191Z,11.30
2019-02-14T03:25:42.385Z,11.93
2019-02-14T03:28:03.573Z,13.87
2019-02-14T03:30:24.762Z,9.43
2019-02-14T03:32:45.945Z,13.43
2019-02-14T03:35:07.546Z,11.80
2019-02-14T03:37:29.937Z,11.27
2019-02-14T03:39:51.116Z,11.30
2019-02-14T03:42:12.289Z,10.27
2019-02-14T03:44:33.488Z,10.03
2019-02-14T03:46:55.029Z,11.07
2019-02-14T03:49:16.236Z,9.33
2019-02-14T03:51:37.406Z,12.00
2019-02-14T03:53:58.588Z,10.43
2019-02-14T03:56:19.875Z,9.97
2019-02-14T03:58:41.069Z,10.03
2019-02-14T04:01:02.301Z,11.97
2019-02-14T04:03:23.558Z,9.67
2019-02-14T04:05:44.774Z,10.73
2019-02-14T04:08:05.935Z,8.87
2019-02-14T04:10:27.129Z,11.13
2019-02-14T04:12:48.309Z,8.97
2019-02-14T04:15:12.010Z,10.30
2019-02-14T04:17:33.273Z,10.03
2019-02-14T04:19:54.466Z,10.53
2019-02-14T04:22:15.660Z,9.90
2019-02-14T04:24:36.848Z,10.53
2019-02-14T04:26:58.040Z,9.90
2019-02-14T04:29:19.243Z,9.30
2019-02-14T04:31:40.472Z,9.27
2019-02-14T04:34:01.922Z,9.53
2019-02-14T04:36:23.121Z,9.33
2019-02-14T04:38:44.435Z,10.57
2019-02-14T04:41:06.448Z,9.00
2019-02-14T04:43:27.651Z,7.60
2019-02-14T04:45:48.867Z,8.87
2019-02-14T04:48:10.059Z,7.80
2019-02-14T04:50:31.274Z,9.93
2019-02-14T04:52:52.470Z,7.80
2019-02-14T04:55:13.677Z,8.17
2019-02-14T04:57:34.901Z,9.20
2019-02-14T04:59:56.286Z,10.70
2019-02-14T05:02:17.505Z,9.00
2019-02-14T05:04:38.712Z,8.17
2019-02-14T05:06:59.946Z,9.23
2019-02-14T05:09:21.154Z,9.37
2019-02-14T05:11:42.344Z,8.37
2019-02-14T05:14:03.542Z,8.43
2019-02-14T05:16:24.745Z,12.00
2019-02-14T05:18:46.150Z,9.10
2019-02-14T05:21:07.351Z,8.67
2019-02-14T05:23:28.792Z,9.77
2019-02-14T05:25:50.008Z,9.43
2019-02-14T05:28:11.226Z,9.17
2019-02-14T05:30:32.451Z,9.03
2019-02-14T05:32:53.659Z,8.97
2019-02-14T05:35:14.854Z,8.30
2019-02-14T05:37:36.081Z,8.23
2019-02-14T05:39:57.275Z,9.13
2019-02-14T05:42:18.708Z,10.57
2019-02-14T05:44:39.969Z,8.87
2019-02-14T05:47:01.176Z,10.53
2019-02-14T05:49:22.366Z,9.37
2019-02-14T05:51:43.578Z,8.27
2019-02-14T05:54:04.805Z,9.07
2019-02-14T05:56:26.045Z,10.60
2019-02-14T05:58:48.505Z,10.30
2019-02-14T06:01:11.707Z,10.10
2019-02-14T06:03:32.906Z,8.90
2019-02-14T06:05:54.263Z,9.37
2019-02-14T06:08:15.490Z,11.33
2019-02-14T06:10:36.668Z,12.13
2019-02-14T06:12:57.881Z,19.77
2019-02-14T06:15:19.118Z,40.20
2019-02-14T06:17:40.620Z,10.07
2019-02-14T06:20:01.912Z,10.20
2019-02-14T06:22:23.124Z,10.33
2019-02-14T06:24:44.326Z,10.17
2019-02-14T06:27:05.529Z,10.67
2019-02-14T06:29:31.086Z,9.73
2019-02-14T06:31:52.260Z,11.03
2019-02-14T06:34:13.461Z,9.03
2019-02-14T06:36:36.141Z,11.00
2019-02-14T06:39:04.653Z,9.87
2019-02-14T06:41:25.858Z,11.87
2019-02-14T06:43:47.056Z,11.43
2019-02-14T06:46:08.253Z,11.73
2019-02-14T06:48:29.452Z,10.90
2019-02-14T06:50:50.877Z,11.40
2019-02-14T06:53:12.113Z,12.03
2019-02-14T06:55:33.318Z,11.73
2019-02-14T06:57:54.544Z,11.40
2019-02-14T07:00:16.144Z,10.50
2019-02-14T07:02:37.373Z,9.90
2019-02-14T07:04:58.668Z,9.17
2019-02-14T07:07:19.928Z,8.97
2019-02-14T07:09:41.148Z,9.93
2019-02-14T07:12:02.356Z,8.77
2019-02-14T07:14:23.567Z,9.70
2019-02-14T07:16:44.779Z,9.90
2019-02-14T07:19:05.996Z,8.43
2019-02-14T07:21:27.324Z,10.53
2019-02-14T07:23:48.543Z,11.53
2019-02-14T07:26:09.715Z,8.50
2019-02-14T07:28:30.934Z,8.43
2019-02-14T07:30:52.117Z,10.83
2019-02-14T07:33:13.335Z,9.37
2019-02-14T07:35:34.630Z,9.23
2019-02-14T07:37:55.870Z,11.87
2019-02-14T07:40:17.059Z,8.63
2019-02-14T07:42:38.367Z,10.07
2019-02-14T07:44:59.552Z,10.03
2019-02-14T07:47:20.758Z,10.77
2019-02-14T07:49:42.164Z,10.73
2019-02-14T07:52:03.363Z,9.60
2019-02-14T07:54:24.577Z,9.37
2019-02-14T07:56:45.784Z,9.63
2019-02-14T07:59:07.011Z,9.33
2019-02-14T08:01:28.210Z,8.80
2019-02-14T08:03:49.523Z,10.03
2019-02-14T08:06:10.712Z,9.33
2019-02-14T08:08:32.076Z,9.27
2019-02-14T08:10:53.373Z,9.73
2019-02-14T08:13:14.573Z,9.83
2019-02-14T08:15:35.761Z,7.70
2019-02-14T08:17:56.984Z,10.67
2019-02-14T08:20:39.949Z,10.43
2019-02-14T08:23:01.457Z,17.13
2019-02-14T08:25:22.642Z,27.70
2019-02-14T08:27:43.885Z,22.30
2019-02-14T08:30:10.758Z,11.30
2019-02-14T08:32:32.243Z,14.97
2019-02-14T08:34:53.443Z,10.27
2019-02-14T08:37:14.615Z,8.53
2019-02-14T08:39:35.819Z,11.03
2019-02-14T08:41:57.002Z,11.97
2019-02-14T08:44:18.497Z,9.37
2019-02-14T08:46:39.688Z,10.50
2019-02-14T08:49:00.907Z,8.93
2019-02-14T08:51:22.221Z,9.63
2019-02-14T08:53:43.417Z,9.93
2019-02-14T08:56:04.735Z,12.07
2019-02-14T08:58:26.452Z,8.80
2019-02-14T09:00:47.644Z,10.30
2019-02-14T09:03:09.924Z,9.40
2019-02-14T09:05:31.124Z,8.87
2019-02-14T09:07:54.976Z,9.90
2019-02-14T09:10:15.939Z,10.70
2019-02-14T09:12:37.137Z,9.87
2019-02-14T09:14:58.336Z,10.67
2019-02-14T09:17:19.554Z,13.57
2019-02-14T09:19:40.757Z,10.87
2019-02-14T09:22:01.960Z,9.90
2019-02-14T09:24:23.272Z,10.20
2019-02-14T09:26:44.455Z,8.97
2019-02-14T09:29:05.671Z,10.20
2019-02-14T09:31:26.865Z,10.83
2019-02-14T09:33:48.095Z,9.83
2019-02-14T09:36:09.272Z,11.73
2019-02-14T09:38:30.561Z,8.90
2019-02-14T09:40:51.833Z,8.83
2019-02-14T09:43:13.027Z,11.17
2019-02-14T09:45:34.217Z,8.83
2019-02-14T09:47:55.409Z,9.97
2019-02-14T09:50:16.612Z,10.17
2019-02-14T09:52:39.108Z,9.90
2019-02-14T09:55:00.353Z,9.33
2019-02-14T09:57:21.602Z,8.77
2019-02-14T09:59:42.846Z,10.63
2019-02-14T10:02:04.126Z,9.27
2019-02-14T10:04:25.417Z,8.80
2019-02-14T10:06:46.626Z,7.93
2019-02-14T10:09:07.918Z,12.23
2019-02-14T10:11:29.116Z,7.17
2019-02-14T10:13:50.517Z,9.07
2019-02-14T10:16:11.712Z,10.70
2019-02-14T10:18:33.017Z,10.80
2019-02-14T10:20:54.213Z,8.27
2019-02-14T10:23:15.416Z,9.17
2019-02-14T10:25:36.809Z,8.30
2019-02-14T10:27:57.991Z,10.00
2019-02-14T10:30:20.485Z,8.37
2019-02-14T10:32:43.179Z,9.27
2019-02-14T10:35:04.479Z,8.50
2019-02-14T10:37:25.669Z,8.27
2019-02-14T10:39:46.880Z,7.40
2019-02-14T10:42:08.108Z,7.50
2019-02-14T10:44:29.315Z,7.87
2019-02-14T10:46:50.488Z,6.90
2019-02-14T10:49:11.693Z,9.73
2019-02-14T10:51:32.882Z,9.77
2019-02-14T10:53:54.123Z,10.93
2019-02-14T10:56:15.695Z,12.80
2019-02-14T10:58:36.910Z,12.33
2019-02-14T11:00:58.205Z,9.43
2019-02-14T11:03:19.750Z,11.07
2019-02-14T11:05:41.267Z,10.00
2019-02-14T11:08:02.460Z,9.33
2019-02-14T11:10:23.768Z,23.00
2019-02-14T11:12:45.055Z,11.60
2019-02-14T11:15:28.140Z,11.73
2019-02-14T11:17:49.372Z,12.80
2019-02-14T11:20:12.651Z,13.67
2019-02-14T11:22:33.846Z,9.97
2019-02-14T11:24:55.107Z,9.87
2019-02-14T11:27:16.296Z,10.03
2019-02-14T11:29:37.498Z,11.80
2019-02-14T11:31:58.673Z,13.30
2019-02-14T11:34:19.879Z,13.83
2019-02-14T11:36:41.364Z,12.13
2019-02-14T11:39:06.449Z,11.40
2019-02-14T11:41:27.639Z,11.83
2019-02-14T11:43:48.839Z,12.03
2019-02-14T11:46:10.016Z,11.80
2019-02-14T11:48:31.205Z,12.67
2019-02-14T11:50:52.418Z,11.77
2019-02-14T11:53:14.283Z,12.20
2019-02-14T11:55:36.019Z,11.27
2019-02-14T11:57:57.208Z,12.13
2019-02-14T12:00:20.969Z,12.03
2019-02-14T12:02:42.177Z,9.60
2019-02-14T12:05:03.565Z,11.33
2019-02-14T12:07:24.934Z,9.37
2019-02-14T12:09:46.212Z,9.43
2019-02-14T12:12:07.404Z,11.97
2019-02-14T12:14:28.700Z,9.50
2019-02-14T12:16:49.881Z,11.27
2019-02-14T12:19:11.085Z,14.43
2019-02-14T12:21:32.461Z,14.27
2019-02-14T12:23:53.666Z,13.83
2019-02-14T12:26:16.259Z,14.17
2019-02-14T12:28:37.534Z,16.03
2019-02-14T12:30:58.743Z,12.47
2019-02-14T12:33:19.933Z,13.30
2019-02-14T12:35:41.276Z,13.30
2019-02-14T12:38:02.490Z,15.20
2019-02-14T12:40:23.693Z,14.93
2019-02-14T12:42:45.482Z,15.43
2019-02-14T12:45:20.461Z,15.23
2019-02-14T12:47:41.936Z,14.47
2019-02-14T12:50:06.732Z,12.63
2019-02-14T12:52:27.932Z,13.33
2019-02-14T12:54:49.116Z,14.50
2019-02-14T12:57:10.311Z,14.43
2019-02-14T12:59:31.510Z,17.00
2019-02-14T13:01:53.214Z,13.00
2019-02-14T13:04:14.536Z,15.33
2019-02-14T13:06:35.747Z,14.30
2019-02-14T13:08:56.968Z,14.23
2019-02-14T13:11:18.212Z,13.60
2019-02-14T13:13:41.072Z,15.53
2019-02-14T13:16:02.366Z,13.87
2019-02-14T13:18:23.580Z,12.70
2019-02-14T13:20:46.733Z,13.90
2019-02-14T13:23:07.906Z,13.20
2019-02-14T13:25:29.124Z,13.87
2019-02-14T13:27:50.341Z,13.93
2019-02-14T13:30:17.677Z,14.00
2019-02-14T13:32:39.052Z,16.67
2019-02-14T13:35:00.751Z,13.30
2019-02-14T13:37:22.021Z,13.67
2019-02-14T13:39:43.274Z,14.53
2019-02-14T13:42:04.467Z,14.77
2019-02-14T13:44:25.756Z,15.43
2019-02-14T13:46:46.951Z,15.37
2019-02-14T13:49:08.162Z,15.03
2019-02-14T13:51:29.382Z,14.63
2019-02-14T13:53:50.568Z,16.50
2019-02-14T13:56:11.772Z,13.30
2019-02-14T13:58:32.953Z,13.20
2019-02-14T14:00:54.151Z,12.93
2019-02-14T14:03:15.335Z,12.90
2019-02-14T14:05:36.632Z,13.90
2019-02-14T14:07:57.814Z,14.10
2019-02-14T14:10:19.246Z,13.40
2019-02-14T14:12:42.203Z,14.40
2019-02-14T14:15:06.583Z,13.87
2019-02-14T14:17:27.787Z,15.37
2019-02-14T14:19:49.116Z,14.50
2019-02-14T14:22:10.479Z,17.77
2019-02-14T14:24:32.057Z,16.40
2019-02-14T14:26:53.431Z,16.47
2019-02-14T14:29:14.608Z,16.40
2019-02-14T14:31:35.812Z,14.03
2019-02-14T14:33:57.318Z,15.77
2019-02-14T14:36:18.532Z,15.53
2019-02-14T14:38:39.714Z,13.33
2019-02-14T14:41:00.939Z,14.83
2019-02-14T14:43:26.635Z,13.77
2019-02-14T14:46:04.856Z,14.77
2019-02-14T14:48:27.425Z,14.23
2019-02-14T14:50:48.634Z,14.60
2019-02-14T14:53:10.138Z,15.00
2019-02-14T14:55:31.329Z,12.83
2019-02-14T14:57:52.529Z,13.90
2019-02-14T15:00:13.940Z,15.07
2019-02-14T15:02:36.437Z,13.23
2019-02-14T15:04:57.933Z,14.40
2019-02-14T15:07:19.281Z,14.17
2019-02-14T15:09:40.473Z,14.57
2019-02-14T15:12:01.709Z,15.50
2019-02-14T15:14:22.893Z,14.23
2019-02-14T15:16:44.098Z,16.53
2019-02-14T15:19:05.607Z,16.33
2019-02-14T15:21:27.977Z,14.50
2019-02-14T15:23:49.292Z,13.70
2019-02-14T15:26:10.478Z,15.73
2019-02-14T15:28:31.680Z,12.57
2019-02-14T15:30:53.117Z,12.20
2019-02-14T15:33:14.392Z,16.90
2019-02-14T15:35:35.581Z,15.27
2019-02-14T15:37:56.842Z,13.50
2019-02-14T15:40:18.044Z,14.57
2019-02-14T15:42:39.381Z,16.90
2019-02-14T15:45:00.601Z,13.33
2019-02-14T15:47:21.800Z,16.27
2019-02-14T15:49:44.625Z,14.03
2019-02-14T15:52:07.748Z,14.63
2019-02-14T15:54:30.939Z,13.93
2019-02-14T15:56:53.643Z,17.23
2019-02-14T15:59:16.851Z,16.20
2019-02-14T16:01:39.678Z,16.73
2019-02-14T16:04:02.510Z,14.73
2019-02-14T16:06:26.067Z,15.37
2019-02-14T16:08:48.885Z,15.10
2019-02-14T16:11:11.915Z,15.03
2019-02-14T16:13:33.730Z,13.97
2019-02-14T16:15:58.256Z,16.90
2019-02-14T16:18:18.377Z,14.73
2019-02-14T16:20:40.449Z,15.17
2019-02-14T16:23:04.168Z,19.03
2019-02-14T16:25:27.664Z,16.27
2019-02-14T16:27:50.563Z,16.00
2019-02-14T16:30:12.137Z,16.50
2019-02-14T16:32:33.317Z,15.53
2019-02-14T16:34:54.509Z,21.77
2019-02-14T16:37:15.753Z,14.30
2019-02-14T16:39:37.043Z,19.17
2019-02-14T16:41:58.240Z,17.93
2019-02-14T16:44:19.449Z,17.73
2019-02-14T16:46:40.633Z,15.83
2019-02-14T16:49:01.830Z,16.73
2019-02-14T16:51:23.024Z,15.67
2019-02-14T16:53:47.187Z,15.60
2019-02-14T16:56:08.377Z,17.00
2019-02-14T16:58:29.579Z,14.47
2019-02-14T17:00:50.772Z,19.40
2019-02-14T17:03:11.980Z,17.17
2019-02-14T17:05:33.172Z,18.70
2019-02-14T17:07:56.046Z,16.97
2019-02-14T17:10:17.480Z,21.07
2019-02-14T17:12:38.721Z,18.40
2019-02-14T17:14:59.932Z,16.53
2019-02-14T17:17:27.683Z,17.90
2019-02-14T17:19:44.249Z,17.70
2019-02-14T17:22:05.440Z,21.37
2019-02-14T17:24:31.421Z,18.97
2019-02-14T17:26:52.607Z,17.37
2019-02-14T17:29:13.808Z,17.47
2019-02-14T17:31:35.284Z,18.07
2019-02-14T17:33:56.521Z,17.20
2019-02-14T17:36:17.705Z,17.97
2019-02-14T17:38:38.939Z,18.93
2019-02-14T17:41:00.242Z,21.40
2019-02-14T17:43:21.458Z,21.93
2019-02-14T17:45:42.657Z,18.77
2019-02-14T17:48:03.864Z,15.70
2019-02-14T17:50:25.144Z,18.97
2019-02-14T17:52:46.456Z,17.40
2019-02-14T17:55:08.627Z,17.70
2019-02-14T17:57:29.817Z,17.97
2019-02-14T17:59:51.041Z,18.67
2019-02-14T18:02:12.744Z,19.47
2019-02-14T18:04:33.959Z,19.10
2019-02-14T18:06:55.185Z,26.83
2019-02-14T18:09:16.395Z,21.20
2019-02-14T18:11:37.606Z,19.77
2019-02-14T18:13:58.815Z,21.00
2019-02-14T18:16:19.996Z,21.40
2019-02-14T18:18:41.213Z,38.30
2019-02-14T18:21:02.668Z,37.20
2019-02-14T18:23:23.993Z,31.33
2019-02-14T18:25:45.206Z,22.90
2019-02-14T18:28:07.609Z,25.87
2019-02-14T18:30:28.822Z,19.50
2019-02-14T18:32:50.006Z,25.17
2019-02-14T18:35:11.226Z,28.10
2019-02-14T18:37:32.504Z,34.77
2019-02-14T18:39:53.746Z,25.80
2019-02-14T18:42:14.959Z,23.23
2019-02-14T18:44:36.500Z,21.80
2019-02-14T18:46:57.692Z,20.87
2019-02-14T18:49:18.877Z,22.67
2019-02-14T18:51:40.137Z,26.80
2019-02-14T18:54:01.313Z,19.00
2019-02-14T18:56:23.622Z,22.03
2019-02-14T18:58:44.813Z,22.83
2019-02-14T19:01:06.041Z,26.10
2019-02-14T19:03:27.508Z,23.67
2019-02-14T19:05:49.049Z,22.50
2019-02-14T19:08:10.250Z,21.77
2019-02-14T19:10:31.492Z,21.40
2019-02-14T19:12:53.962Z,20.80
2019-02-14T19:15:15.210Z,24.07
2019-02-14T19:17:36.410Z,21.93
2019-02-14T19:19:57.823Z,22.93
2019-02-14T19:22:19.023Z,21.93
2019-02-14T19:24:40.216Z,20.60
2019-02-14T19:27:01.615Z,19.43
2019-02-14T19:29:22.888Z,23.60
2019-02-14T19:31:44.097Z,23.70
2019-02-14T19:34:05.338Z,22.53
2019-02-14T19:36:26.561Z,19.70
2019-02-14T19:38:47.761Z,24.33
2019-02-14T19:41:09.144Z,21.30
2019-02-14T19:43:30.339Z,21.73
2019-02-14T19:45:51.565Z,24.17
2019-02-14T19:48:19.433Z,26.07
2019-02-14T19:50:40.642Z,25.90
2019-02-14T19:53:01.845Z,22.20
2019-02-14T19:55:23.040Z,24.27
2019-02-14T19:57:44.233Z,76.43
2019-02-14T20:00:14.677Z,60.87
2019-02-14T20:02:35.864Z,26.23
2019-02-14T20:04:57.237Z,24.77
2019-02-14T20:07:18.440Z,20.60
2019-02-14T20:09:41.565Z,21.20
2019-02-14T20:12:04.606Z,19.37
2019-02-14T20:14:25.803Z,23.33
2019-02-14T20:16:47.101Z,22.67
2019-02-14T20:19:08.299Z,23.20
2019-02-14T20:21:29.496Z,21.83
2019-02-14T20:23:50.712Z,21.60
2019-02-14T20:26:11.912Z,19.80
2019-02-14T20:28:33.168Z,23.07
2019-02-14T20:30:54.485Z,22.60
2019-02-14T20:33:15.693Z,24.40
2019-02-14T20:35:36.918Z,24.33
2019-02-14T20:37:58.117Z,25.47
2019-02-14T20:40:19.291Z,21.73
2019-02-14T20:42:40.629Z,24.20
2019-02-14T20:45:02.622Z,23.60
2019-02-14T20:47:23.851Z,21.37
2019-02-14T20:49:45.137Z,23.80
2019-02-14T20:52:06.412Z,23.23
2019-02-14T20:54:27.702Z,25.27
2019-02-14T20:56:48.958Z,22.97
2019-02-14T20:59:10.148Z,22.83
2019-02-14T21:01:31.349Z,24.63
2019-02-14T21:03:52.556Z,24.63
2019-02-14T21:06:14.857Z,24.07
2019-02-14T21:08:36.068Z,20.70
2019-02-14T21:10:57.272Z,24.13
2019-02-14T21:13:19.591Z,24.77
2019-02-14T21:15:40.780Z,25.90
2019-02-14T21:18:02.133Z,27.13
2019-02-14T21:20:23.384Z,25.73
2019-02-14T21:22:44.615Z,25.83
2019-02-14T21:25:07.294Z,25.70
2019-02-14T21:27:28.482Z,24.67
2019-02-14T21:29:49.747Z,24.40
2019-02-14T21:32:10.993Z,23.67
2019-02-14T21:34:32.203Z,22.60
2019-02-14T21:36:53.456Z,25.30
2019-02-14T21:39:14.666Z,24.13
2019-02-14T21:41:35.942Z,46.03
2019-02-14T21:43:57.426Z,26.67
2019-02-14T21:46:18.712Z,23.97
2019-02-14T21:48:40.013Z,23.77
2019-02-14T21:51:02.587Z,28.50
2019-02-14T21:53:23.916Z,24.03
2019-02-14T21:55:45.499Z,25.13
2019-02-14T21:58:06.835Z,27.63
2019-02-14T22:00:28.184Z,29.10
2019-02-14T22:02:49.480Z,28.50
2019-02-14T22:05:10.803Z,29.37
2019-02-14T22:07:34.886Z,29.43
2019-02-14T22:09:55.242Z,25.70
2019-02-14T22:12:16.464Z,24.53
2019-02-14T22:14:37.955Z,26.30
2019-02-14T22:16:59.162Z,23.80
2019-02-14T22:19:20.460Z,26.53
2019-02-14T22:21:42.084Z,22.43
2019-02-14T22:24:03.299Z,23.77
2019-02-14T22:26:25.484Z,23.10
2019-02-14T22:29:02.588Z,22.80
2019-02-14T22:31:24.808Z,21.30
2019-02-14T22:33:47.749Z,22.00
2019-02-14T22:36:09.469Z,20.20
2019-02-14T22:38:30.988Z,21.87
2019-02-14T22:40:52.890Z,22.40
2019-02-14T22:43:14.801Z,22.90
2019-02-14T22:45:36.073Z,19.33
2019-02-14T22:47:57.269Z,19.73
2019-02-14T22:50:18.478Z,18.83
2019-02-14T22:52:39.814Z,20.87
2019-02-14T22:55:01.151Z,19.53
2019-02-14T22:57:22.347Z,19.93
2019-02-14T22:59:43.560Z,19.93
2019-02-14T23:02:05.911Z,22.00
2019-02-14T23:04:27.246Z,20.03
2019-02-14T23:06:48.566Z,20.43
2019-02-14T23:09:13.502Z,21.03
2019-02-14T23:11:38.052Z,19.60
2019-02-14T23:14:00.180Z,21.77
2019-02-14T23:16:21.786Z,21.77
2019-02-14T23:18:42.988Z,18.77
2019-02-14T23:21:05.591Z,20.40
2019-02-14T23:23:29.118Z,20.53
2019-02-14T23:25:53.463Z,18.77
2019-02-14T23:28:14.722Z,19.63
2019-02-14T23:30:35.926Z,24.43
2019-02-14T23:32:57.120Z,19.13
2019-02-14T23:35:18.331Z,19.07
2019-02-14T23:37:39.521Z,20.23
2019-02-14T23:40:00.852Z,19.17
2019-02-14T23:42:22.035Z,16.33
2019-02-14T23:44:43.235Z,20.43
2019-02-14T23:47:04.750Z,15.87
2019-02-14T23:49:26.285Z,18.83
2019-02-14T23:51:47.701Z,20.50
2019-02-14T23:54:09.782Z,18.63
2019-02-14T23:56:31.155Z,19.57
2019-02-14T23:58:52.378Z,20.60
